sensor_id;sensor_type;location;lat;lon;timestamp;P1;durP1;ratioP1;P2;durP2;ratioP2
21162;SDS011;10739;52.198;20.908;2023-06-22T00:00:58;37.63;;;34.00;;
21162;SDS011;10739;52.198;20.908;2023-06-22T00:03:26;37.05;;;33.55;;
21162;SDS011;10739;52.198;20.908;2023-06-22T00:05:52;35.38;;;32.05;;
21162;SDS011;10739;52.198;20.908;2023-06-22T00:08:19;36.60;;;33.10;;
21162;SDS011;10739;52.198;20.908;2023-06-22T00:10:46;36.95;;;33.13;;
21162;SDS011;10739;52.198;20.908;2023-06-22T00:13:12;35.95;;;32.55;;
21162;SDS011;10739;52.198;20.908;2023-06-22T00:15:40;36.15;;;32.65;;
21162;SDS011;10739;52.198;20.908;2023-06-22T00:18:07;35.88;;;32.38;;
21162;SDS011;10739;52.198;20.908;2023-06-22T00:20:35;35.03;;;31.90;;
21162;SDS011;10739;52.198;20.908;2023-06-22T00:23:03;37.35;;;33.53;;
21162;SDS011;10739;52.198;20.908;2023-06-22T00:25:40;37.92;;;34.42;;
21162;SDS011;10739;52.198;20.908;2023-06-22T00:28:06;38.60;;;34.80;;
21162;SDS011;10739;52.198;20.908;2023-06-22T00:30:33;37.70;;;34.08;;
21162;SDS011;10739;52.198;20.908;2023-06-22T00:33:00;36.95;;;33.45;;
21162;SDS011;10739;52.198;20.908;2023-06-22T00:35:27;39.00;;;35.17;;
21162;SDS011;10739;52.198;20.908;2023-06-22T00:37:58;38.88;;;33.90;;
21162;SDS011;10739;52.198;20.908;2023-06-22T00:40:34;38.33;;;34.58;;
21162;SDS011;10739;52.198;20.908;2023-06-22T00:43:01;35.45;;;31.92;;
21162;SDS011;10739;52.198;20.908;2023-06-22T00:45:28;36.90;;;33.47;;
21162;SDS011;10739;52.198;20.908;2023-06-22T00:47:57;35.38;;;32.05;;
21162;SDS011;10739;52.198;20.908;2023-06-22T00:50:26;39.00;;;35.25;;
21162;SDS011;10739;52.198;20.908;2023-06-22T00:52:59;39.25;;;35.42;;
21162;SDS011;10739;52.198;20.908;2023-06-22T00:55:34;38.90;;;35.00;;
21162;SDS011;10739;52.198;20.908;2023-06-22T00:58:06;38.13;;;34.42;;
21162;SDS011;10739;52.198;20.908;2023-06-22T01:00:35;38.45;;;34.72;;
21162;SDS011;10739;52.198;20.908;2023-06-22T01:03:03;38.95;;;35.03;;
21162;SDS011;10739;52.198;20.908;2023-06-22T01:05:34;38.83;;;34.72;;
21162;SDS011;10739;52.198;20.908;2023-06-22T01:18:42;38.50;;;34.28;;
21162;SDS011;10739;52.198;20.908;2023-06-22T01:21:10;38.80;;;34.95;;
21162;SDS011;10739;52.198;20.908;2023-06-22T01:29:24;38.30;;;34.70;;
21162;SDS011;10739;52.198;20.908;2023-06-22T01:31:52;39.88;;;36.20;;
21162;SDS011;10739;52.198;20.908;2023-06-22T01:34:23;40.72;;;36.40;;
21162;SDS011;10739;52.198;20.908;2023-06-22T01:36:50;40.63;;;36.67;;
21162;SDS011;10739;52.198;20.908;2023-06-22T01:39:18;40.45;;;36.42;;
21162;SDS011;10739;52.198;20.908;2023-06-22T01:41:45;40.50;;;36.58;;
21162;SDS011;10739;52.198;20.908;2023-06-22T01:44:14;39.83;;;36.05;;
21162;SDS011;10739;52.198;20.908;2023-06-22T01:46:41;40.90;;;36.55;;
21162;SDS011;10739;52.198;20.908;2023-06-22T01:49:07;39.03;;;35.40;;
21162;SDS011;10739;52.198;20.908;2023-06-22T01:51:34;41.47;;;37.33;;
21162;SDS011;10739;52.198;20.908;2023-06-22T01:54:01;43.17;;;38.90;;
21162;SDS011;10739;52.198;20.908;2023-06-22T01:56:27;45.58;;;40.97;;
21162;SDS011;10739;52.198;20.908;2023-06-22T01:58:59;46.75;;;41.92;;
21162;SDS011;10739;52.198;20.908;2023-06-22T02:01:50;45.55;;;40.88;;
21162;SDS011;10739;52.198;20.908;2023-06-22T02:04:26;46.88;;;42.17;;
21162;SDS011;10739;52.198;20.908;2023-06-22T02:07:01;48.65;;;43.60;;
21162;SDS011;10739;52.198;20.908;2023-06-22T02:09:37;50.42;;;45.40;;
21162;SDS011;10739;52.198;20.908;2023-06-22T02:12:09;49.15;;;44.15;;
21162;SDS011;10739;52.198;20.908;2023-06-22T02:14:39;51.42;;;45.92;;
21162;SDS011;10739;52.198;20.908;2023-06-22T02:17:07;57.80;;;51.67;;
21162;SDS011;10739;52.198;20.908;2023-06-22T02:19:37;62.85;;;54.72;;
21162;SDS011;10739;52.198;20.908;2023-06-22T02:22:06;78.75;;;59.97;;
21162;SDS011;10739;52.198;20.908;2023-06-22T02:24:33;76.82;;;62.45;;
21162;SDS011;10739;52.198;20.908;2023-06-22T02:26:59;96.55;;;65.70;;
21162;SDS011;10739;52.198;20.908;2023-06-22T02:29:27;95.03;;;65.50;;
21162;SDS011;10739;52.198;20.908;2023-06-22T02:31:54;112.40;;;69.65;;
21162;SDS011;10739;52.198;20.908;2023-06-22T02:34:21;104.20;;;70.93;;
21162;SDS011;10739;52.198;20.908;2023-06-22T02:36:48;110.00;;;72.13;;
21162;SDS011;10739;52.198;20.908;2023-06-22T02:41:49;117.93;;;73.60;;
21162;SDS011;10739;52.198;20.908;2023-06-22T02:44:17;124.25;;;77.00;;
21162;SDS011;10739;52.198;20.908;2023-06-22T02:46:44;128.18;;;79.35;;
21162;SDS011;10739;52.198;20.908;2023-06-22T02:49:12;109.47;;;77.85;;
21162;SDS011;10739;52.198;20.908;2023-06-22T02:51:39;119.20;;;78.25;;
21162;SDS011;10739;52.198;20.908;2023-06-22T02:54:10;117.35;;;79.40;;
21162;SDS011;10739;52.198;20.908;2023-06-22T02:56:36;108.82;;;78.88;;
21162;SDS011;10739;52.198;20.908;2023-06-22T02:59:02;107.60;;;77.88;;
21162;SDS011;10739;52.198;20.908;2023-06-22T03:01:29;105.93;;;78.90;;
21162;SDS011;10739;52.198;20.908;2023-06-22T03:04:11;108.82;;;78.55;;
21162;SDS011;10739;52.198;20.908;2023-06-22T03:09:06;99.93;;;76.22;;
21162;SDS011;10739;52.198;20.908;2023-06-22T03:11:33;101.32;;;76.95;;
21162;SDS011;10739;52.198;20.908;2023-06-22T03:14:02;96.63;;;74.82;;
21162;SDS011;10739;52.198;20.908;2023-06-22T03:16:28;96.68;;;73.90;;
21162;SDS011;10739;52.198;20.908;2023-06-22T03:18:54;89.22;;;72.57;;
21162;SDS011;10739;52.198;20.908;2023-06-22T03:21:26;90.13;;;68.82;;
21162;SDS011;10739;52.198;20.908;2023-06-22T03:23:54;87.78;;;67.93;;
21162;SDS011;10739;52.198;20.908;2023-06-22T03:26:20;83.30;;;66.80;;
21162;SDS011;10739;52.198;20.908;2023-06-22T03:28:47;85.55;;;65.97;;
21162;SDS011;10739;52.198;20.908;2023-06-22T03:31:13;76.75;;;62.92;;
21162;SDS011;10739;52.198;20.908;2023-06-22T03:33:39;74.95;;;63.00;;
21162;SDS011;10739;52.198;20.908;2023-06-22T03:36:05;73.53;;;63.15;;
21162;SDS011;10739;52.198;20.908;2023-06-22T03:38:32;74.20;;;61.63;;
21162;SDS011;10739;52.198;20.908;2023-06-22T03:40:58;70.68;;;60.05;;
21162;SDS011;10739;52.198;20.908;2023-06-22T03:43:24;69.70;;;59.72;;
21162;SDS011;10739;52.198;20.908;2023-06-22T03:45:50;67.18;;;58.78;;
21162;SDS011;10739;52.198;20.908;2023-06-22T03:48:16;65.72;;;57.88;;
21162;SDS011;10739;52.198;20.908;2023-06-22T03:50:43;69.65;;;58.03;;
21162;SDS011;10739;52.198;20.908;2023-06-22T03:53:10;69.53;;;57.13;;
21162;SDS011;10739;52.198;20.908;2023-06-22T03:55:36;65.78;;;56.42;;
21162;SDS011;10739;52.198;20.908;2023-06-22T03:58:02;64.05;;;55.75;;
21162;SDS011;10739;52.198;20.908;2023-06-22T04:00:31;64.00;;;53.83;;
21162;SDS011;10739;52.198;20.908;2023-06-22T04:02:58;60.58;;;53.95;;
21162;SDS011;10739;52.198;20.908;2023-06-22T04:05:24;62.72;;;51.72;;
21162;SDS011;10739;52.198;20.908;2023-06-22T04:07:50;63.53;;;50.45;;
21162;SDS011;10739;52.198;20.908;2023-06-22T04:10:16;55.40;;;49.30;;
21162;SDS011;10739;52.198;20.908;2023-06-22T04:12:43;60.65;;;51.10;;
21162;SDS011;10739;52.198;20.908;2023-06-22T04:15:09;56.63;;;47.95;;
21162;SDS011;10739;52.198;20.908;2023-06-22T04:17:37;52.70;;;47.03;;
21162;SDS011;10739;52.198;20.908;2023-06-22T04:20:03;50.03;;;44.67;;
21162;SDS011;10739;52.198;20.908;2023-06-22T04:22:30;49.65;;;44.53;;
21162;SDS011;10739;52.198;20.908;2023-06-22T04:24:56;48.35;;;43.08;;
21162;SDS011;10739;52.198;20.908;2023-06-22T04:27:23;49.45;;;44.13;;
21162;SDS011;10739;52.198;20.908;2023-06-22T04:29:49;49.00;;;43.58;;
21162;SDS011;10739;52.198;20.908;2023-06-22T04:32:16;48.05;;;42.75;;
21162;SDS011;10739;52.198;20.908;2023-06-22T04:34:43;47.28;;;42.22;;
21162;SDS011;10739;52.198;20.908;2023-06-22T04:37:09;47.05;;;42.25;;
21162;SDS011;10739;52.198;20.908;2023-06-22T04:39:41;50.78;;;39.85;;
21162;SDS011;10739;52.198;20.908;2023-06-22T04:42:08;48.13;;;43.28;;
21162;SDS011;10739;52.198;20.908;2023-06-22T04:44:34;45.85;;;40.88;;
21162;SDS011;10739;52.198;20.908;2023-06-22T04:47:01;44.92;;;40.10;;
21162;SDS011;10739;52.198;20.908;2023-06-22T04:49:34;47.45;;;39.90;;
21162;SDS011;10739;52.198;20.908;2023-06-22T04:52:06;42.40;;;38.08;;
21162;SDS011;10739;52.198;20.908;2023-06-22T04:54:35;46.28;;;37.72;;
21162;SDS011;10739;52.198;20.908;2023-06-22T04:57:04;44.13;;;39.33;;
21162;SDS011;10739;52.198;20.908;2023-06-22T04:59:36;45.10;;;38.47;;
21162;SDS011;10739;52.198;20.908;2023-06-22T05:02:04;44.80;;;36.35;;
21162;SDS011;10739;52.198;20.908;2023-06-22T05:04:31;39.72;;;34.97;;
21162;SDS011;10739;52.198;20.908;2023-06-22T05:06:59;41.30;;;33.40;;
21162;SDS011;10739;52.198;20.908;2023-06-22T05:09:27;42.72;;;33.65;;
21162;SDS011;10739;52.198;20.908;2023-06-22T05:11:54;40.38;;;33.30;;
21162;SDS011;10739;52.198;20.908;2023-06-22T05:14:22;35.40;;;31.55;;
21162;SDS011;10739;52.198;20.908;2023-06-22T05:16:48;35.78;;;31.83;;
21162;SDS011;10739;52.198;20.908;2023-06-22T05:19:17;35.55;;;31.60;;
21162;SDS011;10739;52.198;20.908;2023-06-22T05:21:43;37.17;;;30.98;;
21162;SDS011;10739;52.198;20.908;2023-06-22T05:24:10;35.78;;;31.73;;
21162;SDS011;10739;52.198;20.908;2023-06-22T05:26:36;35.75;;;32.03;;
21162;SDS011;10739;52.198;20.908;2023-06-22T05:29:02;34.30;;;30.52;;
21162;SDS011;10739;52.198;20.908;2023-06-22T05:31:29;37.78;;;30.15;;
21162;SDS011;10739;52.198;20.908;2023-06-22T05:33:55;32.05;;;28.85;;
21162;SDS011;10739;52.198;20.908;2023-06-22T05:36:22;33.80;;;30.30;;
21162;SDS011;10739;52.198;20.908;2023-06-22T05:38:51;33.03;;;28.05;;
21162;SDS011;10739;52.198;20.908;2023-06-22T05:41:18;31.80;;;28.42;;
21162;SDS011;10739;52.198;20.908;2023-06-22T05:43:45;31.42;;;28.02;;
21162;SDS011;10739;52.198;20.908;2023-06-22T05:46:11;31.83;;;27.73;;
21162;SDS011;10739;52.198;20.908;2023-06-22T05:48:38;33.63;;;27.90;;
21162;SDS011;10739;52.198;20.908;2023-06-22T05:51:04;34.40;;;29.48;;
21162;SDS011;10739;52.198;20.908;2023-06-22T05:53:30;40.75;;;28.73;;
21162;SDS011;10739;52.198;20.908;2023-06-22T05:55:56;30.80;;;27.55;;
21162;SDS011;10739;52.198;20.908;2023-06-22T05:58:22;30.60;;;27.25;;
21162;SDS011;10739;52.198;20.908;2023-06-22T06:00:49;30.83;;;27.58;;
21162;SDS011;10739;52.198;20.908;2023-06-22T06:03:15;28.83;;;25.70;;
21162;SDS011;10739;52.198;20.908;2023-06-22T06:05:42;28.15;;;25.20;;
21162;SDS011;10739;52.198;20.908;2023-06-22T06:08:10;33.88;;;26.98;;
21162;SDS011;10739;52.198;20.908;2023-06-22T06:10:37;29.13;;;26.05;;
21162;SDS011;10739;52.198;20.908;2023-06-22T06:13:04;28.13;;;25.05;;
21162;SDS011;10739;52.198;20.908;2023-06-22T06:15:31;26.77;;;24.25;;
21162;SDS011;10739;52.198;20.908;2023-06-22T06:17:58;28.33;;;23.30;;
21162;SDS011;10739;52.198;20.908;2023-06-22T06:20:25;28.27;;;23.55;;
21162;SDS011;10739;52.198;20.908;2023-06-22T06:22:55;27.65;;;24.65;;
21162;SDS011;10739;52.198;20.908;2023-06-22T06:25:21;26.02;;;23.02;;
21162;SDS011;10739;52.198;20.908;2023-06-22T06:27:49;26.88;;;24.02;;
21162;SDS011;10739;52.198;20.908;2023-06-22T06:30:17;28.50;;;22.00;;
21162;SDS011;10739;52.198;20.908;2023-06-22T06:32:45;24.92;;;22.20;;
21162;SDS011;10739;52.198;20.908;2023-06-22T06:35:13;28.38;;;22.98;;
21162;SDS011;10739;52.198;20.908;2023-06-22T06:37:47;23.80;;;21.10;;
21162;SDS011;10739;52.198;20.908;2023-06-22T06:40:16;23.63;;;21.13;;
21162;SDS011;10739;52.198;20.908;2023-06-22T06:42:44;21.75;;;19.45;;
21162;SDS011;10739;52.198;20.908;2023-06-22T06:45:21;25.58;;;18.65;;
21162;SDS011;10739;52.198;20.908;2023-06-22T06:47:49;24.13;;;19.30;;
21162;SDS011;10739;52.198;20.908;2023-06-22T06:50:18;20.88;;;18.73;;
21162;SDS011;10739;52.198;20.908;2023-06-22T06:52:44;18.95;;;16.40;;
21162;SDS011;10739;52.198;20.908;2023-06-22T06:55:11;21.95;;;16.70;;
21162;SDS011;10739;52.198;20.908;2023-06-22T06:57:37;24.00;;;15.88;;
21162;SDS011;10739;52.198;20.908;2023-06-22T07:00:05;17.02;;;14.70;;
21162;SDS011;10739;52.198;20.908;2023-06-22T07:02:41;15.52;;;14.00;;
21162;SDS011;10739;52.198;20.908;2023-06-22T07:05:10;17.83;;;14.50;;
21162;SDS011;10739;52.198;20.908;2023-06-22T07:07:38;23.20;;;14.80;;
21162;SDS011;10739;52.198;20.908;2023-06-22T07:10:05;19.60;;;15.15;;
21162;SDS011;10739;52.198;20.908;2023-06-22T07:12:32;18.50;;;14.65;;
21162;SDS011;10739;52.198;20.908;2023-06-22T07:15:05;16.55;;;13.93;;
21162;SDS011;10739;52.198;20.908;2023-06-22T07:17:34;16.73;;;13.60;;
21162;SDS011;10739;52.198;20.908;2023-06-22T07:20:01;15.43;;;13.90;;
21162;SDS011;10739;52.198;20.908;2023-06-22T07:22:33;14.43;;;13.03;;
21162;SDS011;10739;52.198;20.908;2023-06-22T07:25:00;16.48;;;12.43;;
21162;SDS011;10739;52.198;20.908;2023-06-22T07:27:27;12.68;;;11.15;;
21162;SDS011;10739;52.198;20.908;2023-06-22T07:29:53;15.40;;;10.48;;
21162;SDS011;10739;52.198;20.908;2023-06-22T07:32:20;17.05;;;10.40;;
21162;SDS011;10739;52.198;20.908;2023-06-22T07:34:46;12.25;;;9.05;;
21162;SDS011;10739;52.198;20.908;2023-06-22T07:37:13;11.88;;;8.88;;
21162;SDS011;10739;52.198;20.908;2023-06-22T07:39:39;13.13;;;10.00;;
21162;SDS011;10739;52.198;20.908;2023-06-22T07:42:07;12.40;;;9.02;;
21162;SDS011;10739;52.198;20.908;2023-06-22T07:44:34;9.13;;;8.20;;
21162;SDS011;10739;52.198;20.908;2023-06-22T07:47:00;10.98;;;8.65;;
21162;SDS011;10739;52.198;20.908;2023-06-22T07:49:27;11.05;;;7.88;;
21162;SDS011;10739;52.198;20.908;2023-06-22T07:51:54;12.15;;;7.88;;
21162;SDS011;10739;52.198;20.908;2023-06-22T07:54:21;8.55;;;7.47;;
21162;SDS011;10739;52.198;20.908;2023-06-22T07:56:47;13.13;;;10.07;;
21162;SDS011;10739;52.198;20.908;2023-06-22T07:59:13;13.15;;;9.38;;
21162;SDS011;10739;52.198;20.908;2023-06-22T08:01:39;13.45;;;9.02;;
21162;SDS011;10739;52.198;20.908;2023-06-22T08:04:06;18.30;;;9.40;;
21162;SDS011;10739;52.198;20.908;2023-06-22T08:06:32;13.55;;;8.27;;
21162;SDS011;10739;52.198;20.908;2023-06-22T08:08:59;11.95;;;9.23;;
21162;SDS011;10739;52.198;20.908;2023-06-22T08:11:25;11.57;;;7.70;;
21162;SDS011;10739;52.198;20.908;2023-06-22T08:13:51;14.30;;;8.50;;
21162;SDS011;10739;52.198;20.908;2023-06-22T08:16:18;11.63;;;7.32;;
21162;SDS011;10739;52.198;20.908;2023-06-22T08:18:44;11.15;;;7.28;;
21162;SDS011;10739;52.198;20.908;2023-06-22T08:21:10;11.95;;;7.38;;
21162;SDS011;10739;52.198;20.908;2023-06-22T08:23:36;15.55;;;7.30;;
21162;SDS011;10739;52.198;20.908;2023-06-22T08:26:03;10.68;;;7.18;;
21162;SDS011;10739;52.198;20.908;2023-06-22T08:28:29;9.57;;;6.75;;
21162;SDS011;10739;52.198;20.908;2023-06-22T08:30:55;6.90;;;6.15;;
21162;SDS011;10739;52.198;20.908;2023-06-22T08:33:21;15.57;;;6.95;;
21162;SDS011;10739;52.198;20.908;2023-06-22T08:35:54;7.82;;;5.50;;
21162;SDS011;10739;52.198;20.908;2023-06-22T08:38:20;9.80;;;5.70;;
21162;SDS011;10739;52.198;20.908;2023-06-22T08:40:46;13.85;;;5.45;;
21162;SDS011;10739;52.198;20.908;2023-06-22T08:43:13;5.78;;;5.13;;
21162;SDS011;10739;52.198;20.908;2023-06-22T08:45:40;6.32;;;4.88;;
21162;SDS011;10739;52.198;20.908;2023-06-22T08:48:06;6.72;;;4.80;;
21162;SDS011;10739;52.198;20.908;2023-06-22T08:50:33;8.20;;;4.68;;
21162;SDS011;10739;52.198;20.908;2023-06-22T08:52:59;5.93;;;4.47;;
21162;SDS011;10739;52.198;20.908;2023-06-22T08:55:26;9.80;;;5.00;;
21162;SDS011;10739;52.198;20.908;2023-06-22T08:57:52;6.57;;;4.30;;
21162;SDS011;10739;52.198;20.908;2023-06-22T09:00:18;5.88;;;4.35;;
21162;SDS011;10739;52.198;20.908;2023-06-22T09:02:48;7.45;;;4.22;;
21162;SDS011;10739;52.198;20.908;2023-06-22T09:05:14;7.13;;;3.90;;
21162;SDS011;10739;52.198;20.908;2023-06-22T09:07:41;5.00;;;4.22;;
21162;SDS011;10739;52.198;20.908;2023-06-22T09:10:08;7.22;;;3.83;;
21162;SDS011;10739;52.198;20.908;2023-06-22T09:12:35;8.20;;;4.50;;
21162;SDS011;10739;52.198;20.908;2023-06-22T09:15:03;5.75;;;3.65;;
21162;SDS011;10739;52.198;20.908;2023-06-22T09:17:32;6.78;;;3.65;;
21162;SDS011;10739;52.198;20.908;2023-06-22T09:19:59;4.32;;;3.60;;
21162;SDS011;10739;52.198;20.908;2023-06-22T09:22:25;4.45;;;3.65;;
21162;SDS011;10739;52.198;20.908;2023-06-22T09:24:55;5.63;;;3.60;;
21162;SDS011;10739;52.198;20.908;2023-06-22T09:27:21;6.95;;;3.25;;
21162;SDS011;10739;52.198;20.908;2023-06-22T09:29:47;7.45;;;3.88;;
21162;SDS011;10739;52.198;20.908;2023-06-22T09:32:15;6.32;;;4.13;;
21162;SDS011;10739;52.198;20.908;2023-06-22T09:34:41;6.10;;;3.72;;
21162;SDS011;10739;52.198;20.908;2023-06-22T09:37:08;6.43;;;4.15;;
21162;SDS011;10739;52.198;20.908;2023-06-22T09:39:34;15.13;;;4.20;;
21162;SDS011;10739;52.198;20.908;2023-06-22T09:42:02;6.20;;;3.70;;
21162;SDS011;10739;52.198;20.908;2023-06-22T09:44:30;4.78;;;3.90;;
21162;SDS011;10739;52.198;20.908;2023-06-22T09:46:57;3.92;;;3.60;;
21162;SDS011;10739;52.198;20.908;2023-06-22T09:49:23;6.38;;;3.92;;
21162;SDS011;10739;52.198;20.908;2023-06-22T09:51:49;8.07;;;4.10;;
21162;SDS011;10739;52.198;20.908;2023-06-22T09:54:16;5.45;;;3.60;;
21162;SDS011;10739;52.198;20.908;2023-06-22T09:56:43;5.90;;;4.03;;
21162;SDS011;10739;52.198;20.908;2023-06-22T09:59:09;7.75;;;3.78;;
21162;SDS011;10739;52.198;20.908;2023-06-22T10:01:35;8.18;;;4.13;;
21162;SDS011;10739;52.198;20.908;2023-06-22T10:04:02;12.05;;;4.38;;
21162;SDS011;10739;52.198;20.908;2023-06-22T10:06:28;7.00;;;3.47;;
21162;SDS011;10739;52.198;20.908;2023-06-22T10:08:55;7.97;;;4.20;;
21162;SDS011;10739;52.198;20.908;2023-06-22T10:11:21;8.30;;;4.57;;
21162;SDS011;10739;52.198;20.908;2023-06-22T10:16:51;6.90;;;4.00;;
21162;SDS011;10739;52.198;20.908;2023-06-22T10:19:18;8.48;;;4.10;;
21162;SDS011;10739;52.198;20.908;2023-06-22T10:21:44;13.05;;;4.40;;
21162;SDS011;10739;52.198;20.908;2023-06-22T10:24:11;5.53;;;4.05;;
21162;SDS011;10739;52.198;20.908;2023-06-22T10:26:37;13.90;;;4.50;;
21162;SDS011;10739;52.198;20.908;2023-06-22T10:29:05;7.63;;;4.40;;
21162;SDS011;10739;52.198;20.908;2023-06-22T10:31:31;4.97;;;3.95;;
21162;SDS011;10739;52.198;20.908;2023-06-22T10:34:00;6.30;;;4.15;;
21162;SDS011;10739;52.198;20.908;2023-06-22T10:36:27;4.57;;;4.13;;
21162;SDS011;10739;52.198;20.908;2023-06-22T10:38:53;6.80;;;3.90;;
21162;SDS011;10739;52.198;20.908;2023-06-22T10:41:21;5.10;;;3.70;;
21162;SDS011;10739;52.198;20.908;2023-06-22T10:43:47;10.85;;;4.45;;
21162;SDS011;10739;52.198;20.908;2023-06-22T10:46:13;5.72;;;4.07;;
21162;SDS011;10739;52.198;20.908;2023-06-22T10:48:39;9.15;;;4.97;;
21162;SDS011;10739;52.198;20.908;2023-06-22T10:51:05;11.10;;;4.53;;
21162;SDS011;10739;52.198;20.908;2023-06-22T10:53:32;5.90;;;4.10;;
21162;SDS011;10739;52.198;20.908;2023-06-22T10:55:58;5.32;;;4.00;;
21162;SDS011;10739;52.198;20.908;2023-06-22T10:58:24;6.88;;;4.47;;
21162;SDS011;10739;52.198;20.908;2023-06-22T11:00:51;6.45;;;4.55;;
21162;SDS011;10739;52.198;20.908;2023-06-22T11:03:18;6.95;;;4.43;;
21162;SDS011;10739;52.198;20.908;2023-06-22T11:05:45;10.15;;;4.15;;
21162;SDS011;10739;52.198;20.908;2023-06-22T11:08:13;5.18;;;4.25;;
21162;SDS011;10739;52.198;20.908;2023-06-22T11:10:39;7.43;;;4.03;;
21162;SDS011;10739;52.198;20.908;2023-06-22T11:13:06;7.97;;;4.32;;
21162;SDS011;10739;52.198;20.908;2023-06-22T11:15:35;4.50;;;4.05;;
21162;SDS011;10739;52.198;20.908;2023-06-22T11:18:02;7.50;;;3.83;;
21162;SDS011;10739;52.198;20.908;2023-06-22T11:20:30;8.82;;;4.25;;
21162;SDS011;10739;52.198;20.908;2023-06-22T11:23:00;5.88;;;4.10;;
21162;SDS011;10739;52.198;20.908;2023-06-22T11:25:26;5.97;;;4.15;;
21162;SDS011;10739;52.198;20.908;2023-06-22T11:27:53;8.70;;;4.20;;
21162;SDS011;10739;52.198;20.908;2023-06-22T11:30:20;6.55;;;4.18;;
21162;SDS011;10739;52.198;20.908;2023-06-22T11:32:46;10.73;;;4.65;;
21162;SDS011;10739;52.198;20.908;2023-06-22T11:35:12;8.43;;;4.07;;
21162;SDS011;10739;52.198;20.908;2023-06-22T11:37:39;6.88;;;4.00;;
21162;SDS011;10739;52.198;20.908;2023-06-22T11:40:05;9.75;;;3.63;;
21162;SDS011;10739;52.198;20.908;2023-06-22T11:42:34;5.82;;;4.20;;
21162;SDS011;10739;52.198;20.908;2023-06-22T11:45:01;5.50;;;3.72;;
21162;SDS011;10739;52.198;20.908;2023-06-22T11:47:30;5.93;;;3.78;;
21162;SDS011;10739;52.198;20.908;2023-06-22T11:49:56;5.65;;;4.07;;
21162;SDS011;10739;52.198;20.908;2023-06-22T11:52:22;5.07;;;3.88;;
21162;SDS011;10739;52.198;20.908;2023-06-22T11:54:49;12.80;;;4.80;;
21162;SDS011;10739;52.198;20.908;2023-06-22T11:57:15;10.00;;;4.07;;
21162;SDS011;10739;52.198;20.908;2023-06-22T11:59:41;9.55;;;4.32;;
21162;SDS011;10739;52.198;20.908;2023-06-22T12:02:08;9.80;;;3.97;;
21162;SDS011;10739;52.198;20.908;2023-06-22T12:04:34;6.38;;;3.60;;
21162;SDS011;10739;52.198;20.908;2023-06-22T12:07:01;9.68;;;4.00;;
21162;SDS011;10739;52.198;20.908;2023-06-22T12:09:27;7.53;;;4.00;;
21162;SDS011;10739;52.198;20.908;2023-06-22T12:11:54;8.02;;;3.95;;
21162;SDS011;10739;52.198;20.908;2023-06-22T12:14:20;10.20;;;4.15;;
21162;SDS011;10739;52.198;20.908;2023-06-22T12:16:47;4.40;;;3.65;;
21162;SDS011;10739;52.198;20.908;2023-06-22T12:19:13;8.05;;;4.22;;
21162;SDS011;10739;52.198;20.908;2023-06-22T12:21:39;4.22;;;3.70;;
21162;SDS011;10739;52.198;20.908;2023-06-22T12:24:06;9.45;;;3.80;;
21162;SDS011;10739;52.198;20.908;2023-06-22T12:26:32;8.85;;;3.67;;
21162;SDS011;10739;52.198;20.908;2023-06-22T12:28:58;9.50;;;4.57;;
21162;SDS011;10739;52.198;20.908;2023-06-22T12:31:24;5.47;;;3.95;;
21162;SDS011;10739;52.198;20.908;2023-06-22T12:33:50;6.03;;;4.07;;
21162;SDS011;10739;52.198;20.908;2023-06-22T12:36:16;8.45;;;4.00;;
21162;SDS011;10739;52.198;20.908;2023-06-22T12:38:43;5.38;;;3.92;;
21162;SDS011;10739;52.198;20.908;2023-06-22T12:41:09;6.57;;;3.97;;
21162;SDS011;10739;52.198;20.908;2023-06-22T12:43:35;5.40;;;3.55;;
21162;SDS011;10739;52.198;20.908;2023-06-22T12:46:01;8.15;;;3.65;;
21162;SDS011;10739;52.198;20.908;2023-06-22T12:48:27;7.63;;;3.88;;
21162;SDS011;10739;52.198;20.908;2023-06-22T12:50:53;6.60;;;4.00;;
21162;SDS011;10739;52.198;20.908;2023-06-22T12:53:19;6.55;;;3.63;;
21162;SDS011;10739;52.198;20.908;2023-06-22T12:55:48;5.20;;;3.65;;
21162;SDS011;10739;52.198;20.908;2023-06-22T12:58:14;4.72;;;3.70;;
21162;SDS011;10739;52.198;20.908;2023-06-22T13:00:40;6.85;;;3.83;;
21162;SDS011;10739;52.198;20.908;2023-06-22T13:03:06;7.75;;;3.60;;
21162;SDS011;10739;52.198;20.908;2023-06-22T13:05:32;5.85;;;3.42;;
21162;SDS011;10739;52.198;20.908;2023-06-22T13:08:00;14.95;;;4.25;;
21162;SDS011;10739;52.198;20.908;2023-06-22T13:10:26;6.90;;;3.10;;
21162;SDS011;10739;52.198;20.908;2023-06-22T13:12:52;4.25;;;3.80;;
21162;SDS011;10739;52.198;20.908;2023-06-22T13:15:28;8.30;;;3.67;;
21162;SDS011;10739;52.198;20.908;2023-06-22T13:17:55;5.60;;;3.67;;
21162;SDS011;10739;52.198;20.908;2023-06-22T13:20:21;7.05;;;3.50;;
21162;SDS011;10739;52.198;20.908;2023-06-22T13:22:47;8.07;;;3.42;;
21162;SDS011;10739;52.198;20.908;2023-06-22T13:25:14;7.07;;;3.60;;
21162;SDS011;10739;52.198;20.908;2023-06-22T13:27:44;7.78;;;3.70;;
21162;SDS011;10739;52.198;20.908;2023-06-22T13:30:10;7.40;;;3.38;;
21162;SDS011;10739;52.198;20.908;2023-06-22T13:32:37;5.97;;;3.78;;
21162;SDS011;10739;52.198;20.908;2023-06-22T13:35:07;5.57;;;3.92;;
21162;SDS011;10739;52.198;20.908;2023-06-22T13:37:35;9.10;;;3.80;;
21162;SDS011;10739;52.198;20.908;2023-06-22T13:40:01;3.85;;;3.50;;
21162;SDS011;10739;52.198;20.908;2023-06-22T13:42:30;7.10;;;3.58;;
21162;SDS011;10739;52.198;20.908;2023-06-22T13:44:57;7.50;;;3.47;;
21162;SDS011;10739;52.198;20.908;2023-06-22T13:47:23;6.05;;;3.42;;
21162;SDS011;10739;52.198;20.908;2023-06-22T13:49:49;4.45;;;3.53;;
21162;SDS011;10739;52.198;20.908;2023-06-22T13:52:15;5.90;;;3.50;;
21162;SDS011;10739;52.198;20.908;2023-06-22T13:54:41;6.63;;;3.67;;
21162;SDS011;10739;52.198;20.908;2023-06-22T13:57:07;5.43;;;3.45;;
21162;SDS011;10739;52.198;20.908;2023-06-22T13:59:34;10.93;;;4.15;;
21162;SDS011;10739;52.198;20.908;2023-06-22T14:02:00;7.40;;;3.65;;
21162;SDS011;10739;52.198;20.908;2023-06-22T14:04:26;7.97;;;3.80;;
21162;SDS011;10739;52.198;20.908;2023-06-22T14:06:54;3.45;;;3.03;;
21162;SDS011;10739;52.198;20.908;2023-06-22T14:09:21;6.22;;;3.55;;
21162;SDS011;10739;52.198;20.908;2023-06-22T14:11:47;4.70;;;3.97;;
21162;SDS011;10739;52.198;20.908;2023-06-22T14:14:13;4.72;;;3.35;;
21162;SDS011;10739;52.198;20.908;2023-06-22T14:16:39;6.45;;;3.55;;
21162;SDS011;10739;52.198;20.908;2023-06-22T14:19:05;6.97;;;3.65;;
21162;SDS011;10739;52.198;20.908;2023-06-22T14:21:32;6.40;;;4.22;;
21162;SDS011;10739;52.198;20.908;2023-06-22T14:23:58;5.55;;;4.13;;
21162;SDS011;10739;52.198;20.908;2023-06-22T14:26:24;7.38;;;4.28;;
21162;SDS011;10739;52.198;20.908;2023-06-22T14:28:50;6.20;;;4.22;;
21162;SDS011;10739;52.198;20.908;2023-06-22T14:31:17;6.53;;;4.70;;
21162;SDS011;10739;52.198;20.908;2023-06-22T14:33:47;6.22;;;4.20;;
21162;SDS011;10739;52.198;20.908;2023-06-22T14:36:15;5.90;;;4.30;;
21162;SDS011;10739;52.198;20.908;2023-06-22T14:38:45;5.20;;;4.70;;
21162;SDS011;10739;52.198;20.908;2023-06-22T14:41:11;5.00;;;4.50;;
21162;SDS011;10739;52.198;20.908;2023-06-22T14:43:38;4.30;;;3.90;;